Time;durP1;ratioP1;P1;durP2;ratioP2;P2;SDS_P1;SDS_P2;PMS_P1;PMS_P2;Temp;Humidity;BMP_temperature;BMP_pressure;BME280_temperature;BME280_humidity;BME280_pressure;Samples;Min_cycle;Max_cycle;Signal;HPM_P1;HPM_P2
2023/10/31 00:01:30;;;;;;;4.33;1.30;;;12.60;31.90;;;;;;4983199;28;20981;-64
2023/10/31 00:03:56;;;;;;;3.50;1.30;;;12.60;31.90;;;;;;4985309;28;20461;-63
2023/10/31 00:06:24;;;;;;;3.57;1.20;;;12.60;32.00;;;;;;4984645;28;20461;-66
2023/10/31 00:08:52;;;;;;;4.20;1.07;;;12.60;32.10;;;;;;4988574;28;20491;-64
2023/10/31 00:11:19;;;;;;;3.43;1.10;;;12.60;32.00;;;;;;4988030;28;20460;-66
2023/10/31 00:13:46;;;;;;;3.97;1.10;;;12.60;32.00;;;;;;4984860;28;20465;-65
2023/10/31 00:16:12;;;;;;;3.20;0.90;;;12.60;31.90;;;;;;4989571;28;20488;-66
2023/10/31 00:18:39;;;;;;;3.70;1.00;;;12.60;31.90;;;;;;4987475;28;20464;-63
2023/10/31 00:21:06;;;;;;;3.10;0.80;;;12.60;31.80;;;;;;4983757;28;20487;-66
2023/10/31 00:23:34;;;;;;;3.63;0.80;;;12.60;31.80;;;;;;4981227;28;20460;-66
2023/10/31 00:26:01;;;;;;;3.20;0.70;;;12.50;31.80;;;;;;4980542;28;20477;-65
2023/10/31 00:28:28;;;;;;;3.27;0.87;;;12.50;31.90;;;;;;4986811;28;20473;-66
2023/10/31 00:30:55;;;;;;;3.53;0.83;;;12.60;31.90;;;;;;4985757;28;20531;-66
2023/10/31 00:33:21;;;;;;;4.90;1.23;;;12.50;31.90;;;;;;4977528;28;20528;-64
2023/10/31 00:35:48;;;;;;;3.20;0.73;;;12.50;31.90;;;;;;4987147;28;20489;-64
2023/10/31 00:38:15;;;;;;;3.60;0.97;;;12.50;32.00;;;;;;4979545;28;20462;-64
2023/10/31 00:40:43;;;;;;;3.50;0.93;;;12.50;31.90;;;;;;4984252;28;20472;-64
2023/10/31 00:43:09;;;;;;;3.50;0.97;;;12.50;31.90;;;;;;4985321;28;20480;-64
2023/10/31 00:45:36;;;;;;;3.20;1.03;;;12.50;31.90;;;;;;4984494;28;20468;-64
2023/10/31 00:48:03;;;;;;;5.67;0.90;;;12.50;32.00;;;;;;4986129;28;20468;-64
2023/10/31 00:50:30;;;;;;;4.00;1.30;;;12.50;31.80;;;;;;4986231;28;20460;-64
2023/10/31 00:52:56;;;;;;;3.80;0.90;;;12.50;31.80;;;;;;4981428;28;20558;-63
2023/10/31 00:55:23;;;;;;;3.70;1.30;;;12.50;31.80;;;;;;4984799;28;20547;-64
2023/10/31 00:57:51;;;;;;;3.20;0.90;;;12.50;31.80;;;;;;4979358;28;20468;-64
2023/10/31 01:00:18;;;;;;;3.37;1.10;;;12.40;31.90;;;;;;4988537;28;20490;-64
2023/10/31 01:02:45;;;;;;;3.30;1.20;;;12.40;31.90;;;;;;4985155;28;20491;-63
2023/10/31 01:05:12;;;;;;;3.30;1.20;;;12.40;31.90;;;;;;4988637;28;20520;-63
2023/10/31 01:07:39;;;;;;;3.73;1.50;;;12.40;32.00;;;;;;4978095;28;20469;-64
2023/10/31 01:10:06;;;;;;;4.00;1.10;;;12.40;32.10;;;;;;4982129;28;20461;-64
2023/10/31 01:12:34;;;;;;;3.50;1.30;;;12.40;32.00;;;;;;4979753;28;20454;-63
2023/10/31 01:15:02;;;;;;;3.70;1.50;;;12.40;32.00;;;;;;4981128;28;20482;-63
2023/10/31 01:17:28;;;;;;;3.80;1.50;;;12.40;31.90;;;;;;4986864;28;20516;-64
2023/10/31 01:19:55;;;;;;;3.40;1.00;;;12.30;32.10;;;;;;4985062;28;20469;-64
2023/10/31 01:22:22;;;;;;;4.03;1.63;;;12.30;32.10;;;;;;4984747;28;20450;-64
2023/10/31 01:24:48;;;;;;;3.97;1.83;;;12.30;32.20;;;;;;4983681;28;20492;-64
2023/10/31 01:27:15;;;;;;;3.53;1.33;;;12.30;32.10;;;;;;4983423;28;20827;-63
2023/10/31 01:29:42;;;;;;;3.70;1.60;;;12.40;32.20;;;;;;4986223;28;20464;-64
2023/10/31 01:32:10;;;;;;;3.60;1.63;;;12.30;32.20;;;;;;4981762;28;20480;-64
2023/10/31 01:34:36;;;;;;;3.70;1.60;;;12.40;32.20;;;;;;4979878;28;20489;-63
2023/10/31 01:37:03;;;;;;;3.83;1.33;;;12.40;32.10;;;;;;4981707;28;20484;-64
2023/10/31 01:39:30;;;;;;;4.50;1.70;;;12.30;32.30;;;;;;4985716;28;20484;-64
2023/10/31 01:41:57;;;;;;;4.10;1.50;;;12.30;32.40;;;;;;4986195;28;20465;-63
2023/10/31 01:44:23;;;;;;;3.70;1.50;;;12.30;32.50;;;;;;4982551;28;20992;-64
2023/10/31 01:46:50;;;;;;;3.77;1.50;;;12.30;32.60;;;;;;4983501;28;20875;-64
2023/10/31 01:49:18;;;;;;;4.00;1.30;;;12.30;32.70;;;;;;4983000;28;20949;-64
2023/10/31 01:51:46;;;;;;;3.60;1.30;;;12.30;32.90;;;;;;4980433;28;20476;-64
2023/10/31 01:54:14;;;;;;;3.30;1.40;;;12.30;32.70;;;;;;4977117;28;20478;-63
2023/10/31 01:56:41;;;;;;;4.90;1.57;;;12.30;32.70;;;;;;4978641;28;20485;-63
2023/10/31 01:59:08;;;;;;;4.57;1.80;;;12.30;32.60;;;;;;4984356;28;20965;-64
2023/10/31 02:01:39;;;;;;;4.00;1.50;;;12.30;32.70;;;;;;4980776;28;21033;-66
2023/10/31 02:04:06;;;;;;;4.20;1.50;;;12.20;32.70;;;;;;4976962;28;20847;-64
2023/10/31 02:06:34;;;;;;;3.40;1.40;;;12.20;32.90;;;;;;4984115;28;20465;-64
2023/10/31 02:09:01;;;;;;;3.87;1.40;;;12.20;33.00;;;;;;4982213;28;20453;-64
2023/10/31 02:11:27;;;;;;;4.27;1.63;;;12.20;32.70;;;;;;4985106;28;20469;-65
2023/10/31 02:13:54;;;;;;;5.20;2.13;;;12.20;32.80;;;;;;4983642;28;20490;-65
2023/10/31 02:16:21;;;;;;;4.30;1.67;;;12.20;32.80;;;;;;4982695;28;20492;-64
2023/10/31 02:18:47;;;;;;;3.73;1.40;;;12.20;32.80;;;;;;4988664;28;20464;-63
2023/10/31 02:21:14;;;;;;;4.20;1.70;;;12.20;32.70;;;;;;4986169;28;20472;-64
2023/10/31 02:23:42;;;;;;;3.90;1.60;;;12.20;32.60;;;;;;4987125;28;20461;-65
2023/10/31 02:26:09;;;;;;;4.20;1.63;;;12.20;32.50;;;;;;4989851;28;20480;-64
2023/10/31 02:28:36;;;;;;;3.77;1.57;;;12.20;32.60;;;;;;4990014;28;20460;-65
2023/10/31 02:31:02;;;;;;;4.17;1.47;;;12.30;32.60;;;;;;4985747;28;20477;-64
2023/10/31 02:33:29;;;;;;;4.30;1.70;;;12.20;32.50;;;;;;4987180;28;20483;-63
2023/10/31 02:35:56;;;;;;;3.40;1.20;;;12.20;32.50;;;;;;4984576;28;20493;-64
2023/10/31 02:38:22;;;;;;;3.37;1.27;;;12.20;32.50;;;;;;5019100;23;20495;-72
2023/10/31 02:40:50;;;;;;;3.43;1.40;;;12.20;32.50;;;;;;5026288;28;20471;-72
2023/10/31 02:43:18;;;;;;;4.73;1.93;;;12.20;32.30;;;;;;5029703;28;20838;-72
2023/10/31 02:45:44;;;;;;;8.70;1.60;;;12.20;32.20;;;;;;5025913;28;20490;-72
2023/10/31 02:48:11;;;;;;;4.43;1.50;;;12.20;32.30;;;;;;5026599;28;20980;-72
2023/10/31 02:50:39;;;;;;;3.63;1.43;;;12.20;32.20;;;;;;5027119;28;20466;-72
2023/10/31 02:53:05;;;;;;;3.30;1.10;;;12.20;32.10;;;;;;5025087;28;20470;-72
2023/10/31 02:55:32;;;;;;;3.60;1.30;;;12.20;32.10;;;;;;5029440;28;20839;-72
2023/10/31 02:58:00;;;;;;;3.60;1.20;;;12.20;32.00;;;;;;5029335;28;20483;-72
2023/10/31 03:00:27;;;;;;;4.17;1.20;;;12.10;32.20;;;;;;5028290;28;20971;-72
2023/10/31 03:02:53;;;;;;;5.70;1.30;;;12.10;32.00;;;;;;5027845;28;20466;-72
2023/10/31 03:05:20;;;;;;;5.50;1.40;;;12.10;32.10;;;;;;5029323;28;20486;-72
2023/10/31 03:07:47;;;;;;;3.73;1.47;;;12.10;32.10;;;;;;5029873;28;20466;-72
2023/10/31 03:10:14;;;;;;;4.30;1.50;;;12.10;32.10;;;;;;5024485;28;20463;-72
2023/10/31 03:12:41;;;;;;;6.00;1.37;;;12.10;32.20;;;;;;5027544;28;20990;-72
2023/10/31 03:15:10;;;;;;;4.10;1.20;;;12.10;32.10;;;;;;5022472;28;20482;-72
2023/10/31 03:17:37;;;;;;;3.80;1.10;;;12.10;32.00;;;;;;5029367;28;20482;-72
2023/10/31 03:20:04;;;;;;;3.80;1.10;;;12.10;31.80;;;;;;5021979;28;20473;-72
2023/10/31 03:22:31;;;;;;;3.70;1.10;;;12.10;31.80;;;;;;5027335;28;20463;-71
2023/10/31 03:24:57;;;;;;;3.50;1.03;;;12.10;31.70;;;;;;5018693;28;21007;-72
2023/10/31 03:27:24;;;;;;;4.67;1.10;;;12.10;31.70;;;;;;5029475;28;20466;-72
2023/10/31 03:29:51;;;;;;;3.53;1.20;;;12.10;31.70;;;;;;5023591;28;20477;-71
2023/10/31 03:32:19;;;;;;;3.60;1.20;;;12.10;31.80;;;;;;5024934;28;20474;-72
2023/10/31 03:34:46;;;;;;;3.40;0.93;;;12.10;31.70;;;;;;5025360;28;20511;-71
2023/10/31 03:37:12;;;;;;;3.50;1.00;;;12.10;31.60;;;;;;5025268;28;20771;-72
2023/10/31 03:39:39;;;;;;;3.97;1.03;;;12.00;31.40;;;;;;5029491;28;20458;-72
2023/10/31 03:42:06;;;;;;;4.70;1.10;;;12.10;31.30;;;;;;5025621;28;20463;-72
2023/10/31 03:44:33;;;;;;;4.40;1.10;;;12.00;31.10;;;;;;5025015;28;20490;-72
2023/10/31 03:46:59;;;;;;;3.80;0.80;;;12.00;31.10;;;;;;5027072;28;20463;-72
2023/10/31 03:49:27;;;;;;;3.63;1.20;;;12.00;31.00;;;;;;5022319;28;20475;-72
2023/10/31 03:51:54;;;;;;;3.47;1.00;;;12.00;31.00;;;;;;5027231;28;20462;-72
2023/10/31 03:54:21;;;;;;;3.93;1.03;;;12.00;30.90;;;;;;5027732;28;20490;-72
2023/10/31 03:56:48;;;;;;;2.90;0.60;;;12.00;30.90;;;;;;5022786;28;20863;-72
2023/10/31 03:59:15;;;;;;;3.53;0.87;;;11.90;30.80;;;;;;5022118;28;20459;-72
2023/10/31 04:01:41;;;;;;;3.20;0.80;;;11.90;30.70;;;;;;5023560;28;20479;-72
2023/10/31 04:04:08;;;;;;;8.50;1.03;;;11.90;30.30;;;;;;5022547;28;20578;-68
2023/10/31 04:06:39;;;;;;;4.30;1.37;;;11.90;30.10;;;;;;5025941;28;20462;-68
2023/10/31 04:09:06;;;;;;;3.97;0.90;;;11.90;30.60;;;;;;5023793;28;20469;-70
2023/10/31 04:11:33;;;;;;;5.53;1.40;;;11.90;30.60;;;;;;5022714;28;20470;-71
2023/10/31 04:13:59;;;;;;;3.20;0.80;;;11.90;30.50;;;;;;5024538;28;20481;-71
2023/10/31 04:16:26;;;;;;;4.30;0.80;;;11.90;30.50;;;;;;5028673;28;20863;-71
2023/10/31 04:18:53;;;;;;;3.73;0.60;;;11.90;29.60;;;;;;5027242;28;20481;-71
2023/10/31 04:21:19;;;;;;;4.03;0.70;;;11.90;29.80;;;;;;5021761;28;20464;-71
2023/10/31 04:23:47;;;;;;;3.00;0.50;;;11.90;29.60;;;;;;5024149;28;20467;-72
2023/10/31 04:26:15;;;;;;;3.57;0.93;;;11.90;29.80;;;;;;5025754;28;20479;-71
2023/10/31 04:28:42;;;;;;;4.10;0.77;;;11.80;29.70;;;;;;5029135;28;20559;-71
2023/10/31 04:31:09;;;;;;;4.43;0.70;;;11.90;29.80;;;;;;5024431;28;20459;-71
2023/10/31 04:33:37;;;;;;;3.83;0.80;;;11.80;29.60;;;;;;5025309;28;20462;-71
2023/10/31 04:36:04;;;;;;;3.77;0.70;;;11.80;29.80;;;;;;5028002;28;20489;-72
2023/10/31 04:38:31;;;;;;;3.00;0.70;;;11.80;29.50;;;;;;5020808;28;20988;-71
2023/10/31 04:40:59;;;;;;;4.13;0.90;;;11.80;29.40;;;;;;5018327;28;20458;-71
2023/10/31 04:43:26;;;;;;;3.40;1.03;;;11.80;29.60;;;;;;5016874;28;20470;-70
2023/10/31 04:45:52;;;;;;;4.77;0.70;;;11.80;29.30;;;;;;5020754;28;20983;-71
2023/10/31 04:48:19;;;;;;;3.97;0.90;;;11.80;28.90;;;;;;5022898;28;20459;-71
2023/10/31 04:50:46;;;;;;;4.70;0.80;;;11.80;29.10;;;;;;5022794;28;20462;-70
2023/10/31 04:53:13;;;;;;;9.13;0.90;;;11.70;29.10;;;;;;5022971;28;20466;-71
2023/10/31 04:55:39;;;;;;;4.10;0.67;;;11.70;29.30;;;;;;5014348;28;20479;-70
2023/10/31 04:58:07;;;;;;;4.33;0.90;;;11.70;28.90;;;;;;5026631;28;20475;-70
2023/10/31 05:00:34;;;;;;;3.60;0.97;;;11.70;29.00;;;;;;5023910;28;20520;-70
2023/10/31 05:03:02;;;;;;;3.97;0.80;;;11.70;29.10;;;;;;5023274;28;20474;-71
2023/10/31 05:05:29;;;;;;;3.80;0.93;;;11.60;29.10;;;;;;5024787;28;20483;-70
2023/10/31 05:07:56;;;;;;;4.10;0.80;;;11.70;29.00;;;;;;5029119;28;20454;-70
2023/10/31 05:10:23;;;;;;;5.30;1.00;;;11.70;28.80;;;;;;5040647;28;20443;-71
2023/10/31 05:12:50;;;;;;;8.37;1.20;;;11.70;28.90;;;;;;5049172;28;20463;-71
2023/10/31 05:15:18;;;;;;;4.13;0.80;;;11.70;28.60;;;;;;5023363;28;20498;-71
2023/10/31 05:17:45;;;;;;;5.80;1.10;;;11.70;28.60;;;;;;5022714;28;20491;-70
2023/10/31 05:20:12;;;;;;;4.23;1.00;;;11.60;28.70;;;;;;5021339;28;20947;-70
2023/10/31 05:22:38;;;;;;;3.30;0.77;;;11.60;28.70;;;;;;5022913;28;20978;-71
2023/10/31 05:25:06;;;;;;;7.17;1.20;;;11.60;28.80;;;;;;5025290;28;20483;-70
2023/10/31 05:27:32;;;;;;;7.47;1.00;;;11.60;28.70;;;;;;5022688;28;20459;-70
2023/10/31 05:29:59;;;;;;;3.60;0.90;;;11.60;28.60;;;;;;5025205;28;20466;-70
2023/10/31 05:32:27;;;;;;;5.07;1.20;;;11.60;28.50;;;;;;5022701;28;20876;-71
2023/10/31 05:34:54;;;;;;;3.80;0.90;;;11.60;28.80;;;;;;5025463;28;20478;-71
2023/10/31 05:37:21;;;;;;;3.60;0.87;;;11.50;28.80;;;;;;5028085;28;21101;-71
2023/10/31 05:39:48;;;;;;;5.10;0.90;;;11.50;28.80;;;;;;5021086;28;20459;-71
2023/10/31 05:42:15;;;;;;;3.70;0.87;;;11.50;29.00;;;;;;5022505;28;20470;-71
2023/10/31 05:44:41;;;;;;;5.67;0.90;;;11.60;29.00;;;;;;5022139;28;20484;-71
2023/10/31 05:47:08;;;;;;;3.40;0.63;;;11.60;28.80;;;;;;5022091;28;20474;-71
2023/10/31 05:49:36;;;;;;;3.20;0.90;;;11.60;28.80;;;;;;5017754;28;20465;-71
2023/10/31 05:52:03;;;;;;;4.30;0.90;;;11.50;29.00;;;;;;5023202;28;20835;-71
2023/10/31 05:54:30;;;;;;;3.30;0.90;;;11.60;29.00;;;;;;5026782;28;20478;-71
2023/10/31 05:56:57;;;;;;;4.60;0.77;;;11.50;29.60;;;;;;5025514;28;20482;-71
2023/10/31 05:59:23;;;;;;;6.23;1.73;;;11.60;28.80;;;;;;5022473;28;20458;-71
2023/10/31 06:01:50;;;;;;;3.00;0.60;;;11.60;28.60;;;;;;5027559;28;20483;-70
2023/10/31 06:04:17;;;;;;;3.50;0.90;;;11.60;28.50;;;;;;5027647;28;20509;-71
2023/10/31 06:06:45;;;;;;;5.17;1.03;;;11.60;28.50;;;;;;5025322;28;21314;-71
2023/10/31 06:09:14;;;;;;;6.03;0.87;;;11.60;28.20;;;;;;5029051;28;20462;-71
2023/10/31 06:11:42;;;;;;;4.00;0.80;;;11.60;28.20;;;;;;5026104;28;20470;-71
2023/10/31 06:14:08;;;;;;;4.03;1.00;;;11.60;28.00;;;;;;5027202;28;20462;-72
2023/10/31 06:16:40;;;;;;;4.10;1.10;;;11.60;28.00;;;;;;5023506;28;20470;-71
2023/10/31 06:19:07;;;;;;;3.60;0.80;;;11.60;28.20;;;;;;5030486;28;20454;-71
2023/10/31 06:21:34;;;;;;;3.20;0.70;;;11.60;28.10;;;;;;5030480;28;20458;-71
2023/10/31 06:24:02;;;;;;;3.20;0.70;;;11.60;27.90;;;;;;5024548;28;20455;-71
2023/10/31 06:26:29;;;;;;;3.50;0.90;;;11.60;27.80;;;;;;5026215;28;20486;-72
2023/10/31 06:28:55;;;;;;;4.03;0.70;;;11.60;27.80;;;;;;5022729;28;20458;-71
2023/10/31 06:31:22;;;;;;;3.73;0.93;;;11.60;27.60;;;;;;5024255;28;21229;-71
2023/10/31 06:33:49;;;;;;;4.50;1.20;;;11.60;27.60;;;;;;5027540;28;20473;-71
2023/10/31 06:36:16;;;;;;;3.10;0.50;;;11.60;27.40;;;;;;5023893;28;20854;-71
2023/10/31 06:38:42;;;;;;;3.70;1.03;;;11.60;27.40;;;;;;4976429;28;1329328;-71
2023/10/31 06:41:10;;;;;;;3.40;0.83;;;11.60;27.30;;;;;;5027058;28;20211;-71
2023/10/31 06:43:37;;;;;;;3.57;1.00;;;11.60;27.20;;;;;;5030015;28;21121;-71
2023/10/31 06:46:05;;;;;;;4.20;1.00;;;11.60;27.00;;;;;;5027888;28;20482;-71
2023/10/31 06:48:32;;;;;;;4.03;0.90;;;11.60;26.90;;;;;;5020518;28;20448;-71
2023/10/31 06:50:59;;;;;;;3.83;0.70;;;11.60;26.60;;;;;;5023982;28;20454;-71
2023/10/31 06:53:25;;;;;;;4.50;0.70;;;11.50;26.80;;;;;;5025540;28;20451;-71
2023/10/31 06:55:52;;;;;;;4.00;0.80;;;11.50;26.20;;;;;;5027026;28;20474;-71
2023/10/31 06:58:20;;;;;;;3.47;0.80;;;11.50;26.40;;;;;;5024113;28;20483;-71
2023/10/31 07:00:47;;;;;;;3.50;0.90;;;11.50;26.30;;;;;;5026187;28;20464;-71
2023/10/31 07:03:15;;;;;;;3.30;0.80;;;11.50;25.90;;;;;;5026626;28;20836;-71
2023/10/31 07:05:42;;;;;;;5.27;0.80;;;11.40;26.00;;;;;;5023149;28;20650;-71
2023/10/31 07:08:09;;;;;;;4.53;1.10;;;11.40;25.70;;;;;;5025393;28;20458;-71
2023/10/31 07:10:35;;;;;;;3.73;1.13;;;11.40;25.80;;;;;;5022672;28;20459;-71
2023/10/31 07:13:02;;;;;;;4.13;0.80;;;11.40;25.90;;;;;;5031338;28;20454;-71
2023/10/31 07:15:30;;;;;;;3.37;0.87;;;11.40;25.70;;;;;;5027424;28;20475;-72
2023/10/31 07:17:57;;;;;;;3.20;0.80;;;11.40;26.00;;;;;;5030301;28;20475;-71
2023/10/31 07:20:23;;;;;;;4.90;0.90;;;11.30;26.20;;;;;;5024668;28;20458;-71
2023/10/31 07:22:50;;;;;;;4.70;1.10;;;11.40;26.10;;;;;;5019932;28;20459;-71
2023/10/31 07:25:17;;;;;;;4.60;0.80;;;11.40;26.10;;;;;;5026253;28;20471;-71
2023/10/31 07:27:44;;;;;;;5.20;1.10;;;11.40;26.10;;;;;;5030185;28;20479;-71
2023/10/31 07:30:11;;;;;;;3.90;1.00;;;11.40;26.10;;;;;;5027441;28;20462;-71
2023/10/31 07:32:40;;;;;;;4.30;1.10;;;11.40;26.00;;;;;;5029116;28;20466;-71
2023/10/31 07:35:07;;;;;;;8.33;1.13;;;11.40;25.90;;;;;;5027354;28;20475;-71
2023/10/31 07:37:34;;;;;;;3.63;1.13;;;11.40;25.50;;;;;;5023033;28;21174;-72
2023/10/31 07:40:00;;;;;;;4.77;1.50;;;11.40;25.70;;;;;;5027934;28;20459;-71
2023/10/31 07:42:27;;;;;;;4.17;0.80;;;11.50;25.50;;;;;;5027603;28;20454;-71
2023/10/31 07:44:54;;;;;;;3.23;1.00;;;11.50;25.30;;;;;;5027944;28;20983;-71
2023/10/31 07:47:20;;;;;;;4.10;1.10;;;11.50;25.30;;;;;;5027861;28;20477;-71
2023/10/31 07:49:49;;;;;;;4.03;1.10;;;11.60;25.00;;;;;;5026787;28;20462;-71
2023/10/31 07:52:15;;;;;;;5.33;1.20;;;11.60;24.60;;;;;;5028651;28;20479;-71
2023/10/31 07:54:42;;;;;;;4.20;1.10;;;11.60;24.40;;;;;;5028075;28;20486;-71
2023/10/31 07:57:09;;;;;;;3.53;0.90;;;11.70;24.10;;;;;;5027066;28;20824;-71
2023/10/31 07:59:36;;;;;;;6.00;0.80;;;11.70;24.10;;;;;;5027368;28;20482;-71
2023/10/31 08:02:03;;;;;;;4.50;0.90;;;11.80;23.90;;;;;;5024814;28;20474;-71
2023/10/31 08:04:30;;;;;;;4.90;1.23;;;11.90;23.90;;;;;;5036009;28;20479;-72
2023/10/31 08:06:58;;;;;;;4.80;0.90;;;11.90;23.30;;;;;;5044494;28;20946;-72
2023/10/31 08:09:25;;;;;;;4.73;0.87;;;12.00;23.10;;;;;;5028345;28;20456;-72
2023/10/31 08:11:52;;;;;;;6.33;0.97;;;12.00;22.90;;;;;;5027598;28;20455;-72
2023/10/31 08:14:19;;;;;;;7.43;1.47;;;12.00;22.60;;;;;;5023643;28;20485;-71
2023/10/31 08:16:45;;;;;;;3.37;0.80;;;12.00;22.20;;;;;;5028317;28;20458;-71
2023/10/31 08:19:12;;;;;;;4.03;0.90;;;12.00;22.20;;;;;;5023040;28;20475;-71
2023/10/31 08:21:39;;;;;;;3.40;0.87;;;12.10;22.30;;;;;;5020331;28;20454;-71
2023/10/31 08:24:08;;;;;;;3.47;1.10;;;12.10;22.40;;;;;;5027813;28;20455;-71
2023/10/31 08:26:35;;;;;;;3.73;1.00;;;12.10;22.40;;;;;;5024963;28;20948;-71
2023/10/31 08:29:03;;;;;;;4.40;1.13;;;12.10;21.90;;;;;;5027585;28;20451;-72
2023/10/31 08:31:29;;;;;;;3.80;1.07;;;12.20;21.90;;;;;;5025184;28;20474;-71
2023/10/31 08:33:56;;;;;;;5.83;1.30;;;12.20;21.90;;;;;;5026484;28;20470;-71
2023/10/31 08:36:23;;;;;;;6.03;1.07;;;12.20;21.80;;;;;;5024986;28;20465;-71
2023/10/31 08:38:50;;;;;;;4.00;1.07;;;12.30;21.80;;;;;;5028720;28;20486;-71
2023/10/31 08:41:19;;;;;;;5.87;0.90;;;12.20;21.80;;;;;;5024259;28;20513;-71
2023/10/31 08:43:46;;;;;;;3.33;0.90;;;12.30;21.90;;;;;;5028508;28;20490;-72
2023/10/31 08:46:13;;;;;;;5.17;1.30;;;12.40;21.60;;;;;;5022998;28;20893;-71
2023/10/31 08:48:40;;;;;;;4.73;0.90;;;12.60;21.40;;;;;;5024036;28;20462;-71
2023/10/31 08:51:06;;;;;;;12.77;1.07;;;13.00;20.90;;;;;;5026771;28;20455;-71
2023/10/31 08:53:33;;;;;;;5.27;1.07;;;13.30;20.00;;;;;;5024041;28;20466;-72
2023/10/31 08:56:00;;;;;;;4.00;1.00;;;13.60;19.20;;;;;;5028393;28;20475;-73
2023/10/31 08:58:29;;;;;;;4.60;1.00;;;13.70;18.20;;;;;;5028355;28;20483;-72
2023/10/31 09:00:56;;;;;;;4.00;1.00;;;13.90;18.10;;;;;;5021591;28;20525;-72
2023/10/31 09:03:22;;;;;;;4.70;1.10;;;14.10;17.30;;;;;;5028832;28;20828;-71
2023/10/31 09:05:49;;;;;;;5.70;1.37;;;14.10;16.90;;;;;;5026511;28;20498;-72
2023/10/31 09:08:16;;;;;;;6.63;1.17;;;14.10;16.80;;;;;;5028010;28;20455;-71
2023/10/31 09:10:45;;;;;;;5.27;1.10;;;14.10;16.80;;;;;;5025284;28;20451;-72
2023/10/31 09:13:12;;;;;;;9.87;1.63;;;14.00;16.90;;;;;;5023453;28;20459;-71
2023/10/31 09:15:41;;;;;;;7.17;3.07;;;14.00;17.00;;;;;;5024866;28;20475;-71
2023/10/31 09:18:07;;;;;;;7.90;5.30;;;13.90;17.10;;;;;;5022874;28;20511;-71
2023/10/31 09:20:35;;;;;;;6.20;2.00;;;13.90;17.40;;;;;;5023898;28;20486;-72
2023/10/31 09:23:01;;;;;;;6.50;1.30;;;14.00;17.30;;;;;;5025205;28;20459;-72
2023/10/31 09:25:29;;;;;;;3.80;1.20;;;14.00;17.40;;;;;;5027052;28;20471;-72
2023/10/31 09:27:58;;;;;;;5.33;1.77;;;14.10;17.10;;;;;;5027735;28;21254;-71
2023/10/31 09:30:25;;;;;;;5.60;1.10;;;14.30;16.80;;;;;;5022880;28;20957;-72
2023/10/31 09:32:53;;;;;;;5.60;1.30;;;14.60;16.10;;;;;;5025388;28;20469;-71
2023/10/31 09:35:20;;;;;;;4.47;1.30;;;14.80;15.30;;;;;;5025984;28;21002;-71
2023/10/31 09:37:48;;;;;;;7.93;1.73;;;15.10;14.50;;;;;;5022119;28;20468;-72
2023/10/31 09:40:15;;;;;;;5.53;0.83;;;15.50;13.80;;;;;;5021000;28;20553;-72
2023/10/31 09:42:42;;;;;;;3.30;0.90;;;15.90;12.70;;;;;;5025715;28;20483;-71
2023/10/31 09:45:09;;;;;;;5.80;1.30;;;16.30;12.00;;;;;;5024836;28;20482;-71
2023/10/31 09:47:37;;;;;;;3.90;1.17;;;16.70;11.20;;;;;;5023204;28;20460;-71
2023/10/31 09:50:06;;;;;;;13.20;1.10;;;17.20;10.10;;;;;;5026140;28;20851;-71
2023/10/31 09:52:33;;;;;;;5.87;1.13;;;17.50;8.90;;;;;;5024487;28;20581;-72
2023/10/31 09:55:00;;;;;;;5.03;0.87;;;17.90;8.10;;;;;;5023283;28;20987;-72
2023/10/31 09:57:27;;;;;;;8.53;1.73;;;18.20;7.60;;;;;;5024491;28;20551;-71
2023/10/31 09:59:54;;;;;;;4.50;1.30;;;18.30;6.70;;;;;;5025209;28;20483;-72
2023/10/31 10:02:20;;;;;;;6.20;1.67;;;18.20;6.50;;;;;;5024876;28;20471;-72
2023/10/31 10:04:48;;;;;;;3.83;1.43;;;18.10;6.60;;;;;;5020939;28;20475;-72
2023/10/31 10:07:18;;;;;;;5.27;1.27;;;18.10;6.80;;;;;;5026224;28;20471;-72
2023/10/31 10:09:46;;;;;;;5.30;1.43;;;18.10;6.60;;;;;;5023452;28;20534;-72
2023/10/31 10:12:13;;;;;;;4.10;1.10;;;18.00;6.30;;;;;;5024511;28;20459;-72
2023/10/31 10:14:41;;;;;;;4.67;1.10;;;17.90;6.70;;;;;;5020687;28;20471;-71
2023/10/31 10:17:15;;;;;;;5.03;1.33;;;18.00;7.00;;;;;;5027862;28;20462;-72
2023/10/31 10:19:42;;;;;;;6.27;1.70;;;18.10;6.80;;;;;;5025795;28;20505;-72
2023/10/31 10:22:10;;;;;;;4.00;1.20;;;18.20;6.70;;;;;;5025281;28;20470;-72
2023/10/31 10:24:40;;;;;;;5.40;1.33;;;18.20;6.10;;;;;;5023188;28;20491;-72
2023/10/31 10:27:08;;;;;;;5.70;1.33;;;18.20;6.60;;;;;;5026748;28;20510;-72
2023/10/31 10:29:35;;;;;;;5.73;1.23;;;18.20;6.30;;;;;;5019048;28;20468;-72
2023/10/31 10:32:01;;;;;;;4.57;1.40;;;18.20;6.60;;;;;;5025531;28;20467;-72
2023/10/31 10:34:28;;;;;;;6.07;1.40;;;18.20;6.90;;;;;;5025335;28;20837;-72
2023/10/31 10:36:57;;;;;;;6.33;1.37;;;18.50;5.80;;;;;;5025592;28;20471;-72
2023/10/31 10:39:24;;;;;;;5.13;1.20;;;18.50;5.80;;;;;;5020211;23;20575;-65
2023/10/31 10:41:57;;;;;;;8.27;1.40;;;18.40;6.00;;;;;;5011351;28;20463;-65
2023/10/31 10:44:32;;;;;;;4.37;1.30;;;18.50;6.00;;;;;;5007068;28;20928;-66
2023/10/31 10:47:00;;;;;;;4.70;1.10;;;18.50;4.60;;;;;;5008090;28;20964;-65
2023/10/31 10:49:29;;;;;;;3.60;1.10;;;18.30;5.10;;;;;;5008112;28;20466;-65
2023/10/31 10:52:02;;;;;;;5.83;1.10;;;18.10;5.50;;;;;;5016635;28;20464;-65
2023/10/31 10:54:33;;;;;;;5.33;1.30;;;17.90;6.20;;;;;;5015741;28;20487;-65
2023/10/31 10:57:14;;;;;;;6.60;1.40;;;17.80;6.40;;;;;;5008438;28;20462;-65
2023/10/31 10:59:44;;;;;;;5.17;1.27;;;17.60;6.90;;;;;;5013717;28;20992;-67
2023/10/31 11:02:14;;;;;;;5.90;1.50;;;17.40;7.30;;;;;;5008754;28;20479;-65
2023/10/31 11:04:43;;;;;;;4.37;1.17;;;17.20;7.90;;;;;;5010713;28;20486;-65
2023/10/31 11:07:10;;;;;;;4.73;0.90;;;17.10;7.50;;;;;;5011139;28;20518;-68
2023/10/31 11:09:38;;;;;;;4.40;0.93;;;16.90;7.30;;;;;;5012307;28;20467;-65
2023/10/31 11:12:08;;;;;;;5.47;1.23;;;16.60;8.20;;;;;;5011275;28;20464;-65
2023/10/31 11:14:35;;;;;;;4.60;0.97;;;16.40;8.90;;;;;;5009016;28;21176;-65
2023/10/31 11:17:08;;;;;;;5.40;1.20;;;16.20;9.40;;;;;;5013188;28;20494;-66
2023/10/31 11:19:35;;;;;;;4.93;1.20;;;16.10;10.00;;;;;;5010903;28;20480;-64
2023/10/31 11:22:03;;;;;;;5.60;1.60;;;15.90;10.40;;;;;;5011175;28;20451;-65
2023/10/31 11:24:33;;;;;;;3.40;1.00;;;15.80;10.30;;;;;;5014008;28;20479;-65
2023/10/31 11:27:01;;;;;;;4.00;1.13;;;15.60;10.80;;;;;;5007737;28;20530;-65
2023/10/31 11:29:31;;;;;;;6.07;1.60;;;15.50;11.20;;;;;;5013230;28;20452;-65
2023/10/31 11:31:59;;;;;;;4.60;1.43;;;15.30;11.60;;;;;;5016540;28;20472;-65
2023/10/31 11:34:28;;;;;;;3.73;1.10;;;15.20;11.70;;;;;;5005883;28;20484;-65
2023/10/31 11:36:54;;;;;;;5.07;1.30;;;15.10;12.10;;;;;;5010847;28;20492;-65
2023/10/31 11:39:25;;;;;;;7.10;1.60;;;15.00;12.80;;;;;;5010445;28;20565;-64
2023/10/31 11:41:55;;;;;;;6.30;1.93;;;14.90;13.30;;;;;;5007035;28;20542;-65
2023/10/31 11:44:24;;;;;;;3.90;1.03;;;14.80;13.50;;;;;;5010302;28;20482;-65
2023/10/31 11:46:53;;;;;;;4.20;1.03;;;14.80;13.90;;;;;;5008684;28;20495;-65
2023/10/31 11:49:46;;;;;;;4.30;1.40;;;14.70;13.80;;;;;;5009007;28;20463;-65
2023/10/31 11:52:16;;;;;;;5.77;1.10;;;14.60;14.20;;;;;;5008821;28;20535;-65
2023/10/31 11:54:42;;;;;;;3.67;1.30;;;14.60;14.50;;;;;;5010067;28;21528;-65
2023/10/31 11:57:09;;;;;;;4.13;1.47;;;14.60;15.20;;;;;;5010085;28;20471;-65
2023/10/31 11:59:37;;;;;;;4.70;1.40;;;14.70;14.90;;;;;;5005269;28;20486;-65
2023/10/31 12:02:15;;;;;;;4.07;1.53;;;14.70;14.90;;;;;;5010363;28;20467;-65
2023/10/31 12:04:41;;;;;;;3.10;0.70;;;14.80;15.00;;;;;;5009144;28;20486;-65
2023/10/31 12:07:09;;;;;;;3.70;0.70;;;14.80;14.30;;;;;;5009831;28;20838;-65
2023/10/31 12:09:46;;;;;;;5.40;0.80;;;14.80;14.30;;;;;;5008826;28;20957;-65
2023/10/31 12:12:13;;;;;;;5.00;0.80;;;14.70;14.20;;;;;;5004952;28;20455;-65
2023/10/31 12:14:40;;;;;;;3.70;0.70;;;14.50;14.50;;;;;;5005880;28;20960;-65
2023/10/31 12:17:09;;;;;;;3.10;0.70;;;14.50;15.10;;;;;;5010372;28;20467;-66
2023/10/31 12:19:37;;;;;;;3.93;0.80;;;14.40;15.90;;;;;;5013161;28;20568;-64
2023/10/31 12:22:13;;;;;;;3.33;0.70;;;14.40;15.80;;;;;;5009492;28;20451;-65
2023/10/31 12:24:40;;;;;;;3.47;0.73;;;14.40;15.90;;;;;;5007754;28;20693;-64
2023/10/31 12:27:07;;;;;;;5.27;0.90;;;14.40;16.10;;;;;;5009261;28;21124;-64
2023/10/31 12:29:33;;;;;;;8.30;1.97;;;14.30;16.40;;;;;;5008839;28;20462;-64
2023/10/31 12:32:00;;;;;;;6.27;1.83;;;14.30;16.60;;;;;;5008631;28;20734;-64
2023/10/31 12:34:27;;;;;;;5.53;2.03;;;14.30;17.00;;;;;;5009395;28;20483;-64
2023/10/31 12:36:59;;;;;;;3.63;0.90;;;14.30;18.20;;;;;;5010242;28;20471;-64
2023/10/31 12:39:27;;;;;;;6.07;1.20;;;14.30;18.40;;;;;;5008210;28;20479;-64
2023/10/31 12:41:55;;;;;;;3.80;1.13;;;14.40;19.20;;;;;;5004747;28;20474;-64
2023/10/31 12:44:25;;;;;;;3.83;1.17;;;14.70;19.10;;;;;;5009358;28;20483;-64
2023/10/31 12:46:52;;;;;;;3.70;1.27;;;14.80;18.70;;;;;;5008478;28;20971;-65
2023/10/31 12:49:20;;;;;;;4.30;1.53;;;14.80;18.30;;;;;;5009893;28;20671;-65